sensor_id;sensor_type;location;lat;lon;timestamp;P1;durP1;ratioP1;P2;durP2;ratioP2
19087;SDS011;9676;50.916;13.352;2023-06-14T00:01:30;10.87;;;9.93;;
19087;SDS011;9676;50.916;13.352;2023-06-14T00:04:21;10.83;;;9.83;;
19087;SDS011;9676;50.916;13.352;2023-06-14T00:07:12;11.00;;;10.03;;
19087;SDS011;9676;50.916;13.352;2023-06-14T00:10:04;10.70;;;9.80;;
19087;SDS011;9676;50.916;13.352;2023-06-14T00:12:56;10.40;;;9.50;;
19087;SDS011;9676;50.916;13.352;2023-06-14T00:15:47;10.80;;;9.80;;
19087;SDS011;9676;50.916;13.352;2023-06-14T00:18:36;10.83;;;9.87;;
19087;SDS011;9676;50.916;13.352;2023-06-14T00:21:26;10.43;;;9.53;;
19087;SDS011;9676;50.916;13.352;2023-06-14T00:24:15;10.87;;;9.87;;
19087;SDS011;9676;50.916;13.352;2023-06-14T00:27:05;11.73;;;10.00;;
19087;SDS011;9676;50.916;13.352;2023-06-14T00:29:56;11.17;;;10.17;;
19087;SDS011;9676;50.916;13.352;2023-06-14T00:32:47;10.90;;;9.90;;
19087;SDS011;9676;50.916;13.352;2023-06-14T00:35:37;10.70;;;9.60;;
19087;SDS011;9676;50.916;13.352;2023-06-14T00:38:27;10.83;;;9.83;;
19087;SDS011;9676;50.916;13.352;2023-06-14T00:41:16;10.67;;;9.70;;
19087;SDS011;9676;50.916;13.352;2023-06-14T00:44:06;10.40;;;9.50;;
19087;SDS011;9676;50.916;13.352;2023-06-14T00:46:56;10.37;;;9.47;;
19087;SDS011;9676;50.916;13.352;2023-06-14T00:49:46;11.00;;;10.00;;
19087;SDS011;9676;50.916;13.352;2023-06-14T00:52:36;11.00;;;9.97;;
19087;SDS011;9676;50.916;13.352;2023-06-14T00:55:25;10.50;;;9.60;;
19087;SDS011;9676;50.916;13.352;2023-06-14T00:58:15;10.43;;;9.53;;
19087;SDS011;9676;50.916;13.352;2023-06-14T01:01:05;10.40;;;9.43;;
19087;SDS011;9676;50.916;13.352;2023-06-14T01:03:56;10.83;;;9.83;;
19087;SDS011;9676;50.916;13.352;2023-06-14T01:06:48;10.60;;;9.70;;
19087;SDS011;9676;50.916;13.352;2023-06-14T01:09:55;10.23;;;9.43;;
19087;SDS011;9676;50.916;13.352;2023-06-14T01:12:58;10.50;;;9.60;;
19087;SDS011;9676;50.916;13.352;2023-06-14T01:15:56;10.50;;;9.50;;
19087;SDS011;9676;50.916;13.352;2023-06-14T01:18:45;10.60;;;9.67;;
19087;SDS011;9676;50.916;13.352;2023-06-14T01:21:38;10.37;;;9.47;;
19087;SDS011;9676;50.916;13.352;2023-06-14T01:24:30;10.57;;;9.67;;
19087;SDS011;9676;50.916;13.352;2023-06-14T01:27:22;10.33;;;9.43;;
19087;SDS011;9676;50.916;13.352;2023-06-14T01:30:16;10.90;;;10.00;;
19087;SDS011;9676;50.916;13.352;2023-06-14T01:33:06;10.67;;;9.67;;
19087;SDS011;9676;50.916;13.352;2023-06-14T01:35:56;10.93;;;9.93;;
19087;SDS011;9676;50.916;13.352;2023-06-14T01:38:46;10.60;;;9.70;;
19087;SDS011;9676;50.916;13.352;2023-06-14T01:41:38;11.47;;;9.60;;
19087;SDS011;9676;50.916;13.352;2023-06-14T01:44:29;10.50;;;9.60;;
19087;SDS011;9676;50.916;13.352;2023-06-14T01:47:21;10.37;;;9.50;;
19087;SDS011;9676;50.916;13.352;2023-06-14T01:50:11;11.20;;;10.10;;
19087;SDS011;9676;50.916;13.352;2023-06-14T01:53:00;10.57;;;9.67;;
19087;SDS011;9676;50.916;13.352;2023-06-14T01:55:51;10.47;;;9.57;;
19087;SDS011;9676;50.916;13.352;2023-06-14T01:58:43;10.67;;;9.77;;
19087;SDS011;9676;50.916;13.352;2023-06-14T02:01:32;10.57;;;9.60;;
19087;SDS011;9676;50.916;13.352;2023-06-14T02:04:22;11.20;;;10.20;;
19087;SDS011;9676;50.916;13.352;2023-06-14T02:07:11;10.37;;;9.47;;
19087;SDS011;9676;50.916;13.352;2023-06-14T02:10:01;10.73;;;9.80;;
19087;SDS011;9676;50.916;13.352;2023-06-14T02:12:51;10.50;;;9.60;;
19087;SDS011;9676;50.916;13.352;2023-06-14T02:15:42;11.33;;;10.23;;
19087;SDS011;9676;50.916;13.352;2023-06-14T02:18:32;10.63;;;9.63;;
19087;SDS011;9676;50.916;13.352;2023-06-14T02:21:22;10.60;;;9.70;;
19087;SDS011;9676;50.916;13.352;2023-06-14T02:24:11;10.90;;;9.90;;
19087;SDS011;9676;50.916;13.352;2023-06-14T02:27:01;10.40;;;9.50;;
19087;SDS011;9676;50.916;13.352;2023-06-14T02:29:51;10.90;;;9.90;;
19087;SDS011;9676;50.916;13.352;2023-06-14T02:32:41;10.50;;;9.60;;
19087;SDS011;9676;50.916;13.352;2023-06-14T02:35:32;11.17;;;10.17;;
19087;SDS011;9676;50.916;13.352;2023-06-14T02:38:22;10.77;;;9.87;;
19087;SDS011;9676;50.916;13.352;2023-06-14T02:41:11;10.80;;;9.80;;
19087;SDS011;9676;50.916;13.352;2023-06-14T02:44:01;10.90;;;9.90;;
19087;SDS011;9676;50.916;13.352;2023-06-14T02:46:50;10.80;;;9.80;;
19087;SDS011;9676;50.916;13.352;2023-06-14T02:49:41;11.53;;;10.33;;
19087;SDS011;9676;50.916;13.352;2023-06-14T02:52:30;10.70;;;9.80;;
19087;SDS011;9676;50.916;13.352;2023-06-14T02:55:20;10.47;;;9.57;;
19087;SDS011;9676;50.916;13.352;2023-06-14T02:58:10;11.00;;;10.00;;
19087;SDS011;9676;50.916;13.352;2023-06-14T03:01:00;10.83;;;9.73;;
19087;SDS011;9676;50.916;13.352;2023-06-14T03:03:51;10.50;;;9.60;;
19087;SDS011;9676;50.916;13.352;2023-06-14T03:06:42;11.03;;;10.03;;
19087;SDS011;9676;50.916;13.352;2023-06-14T03:09:39;10.70;;;9.80;;
19087;SDS011;9676;50.916;13.352;2023-06-14T03:12:31;10.60;;;9.70;;
19087;SDS011;9676;50.916;13.352;2023-06-14T03:15:21;10.17;;;9.37;;
19087;SDS011;9676;50.916;13.352;2023-06-14T03:18:12;10.50;;;9.60;;
19087;SDS011;9676;50.916;13.352;2023-06-14T03:21:03;10.90;;;9.90;;
19087;SDS011;9676;50.916;13.352;2023-06-14T03:23:59;10.50;;;9.60;;
19087;SDS011;9676;50.916;13.352;2023-06-14T03:26:51;10.80;;;9.90;;
19087;SDS011;9676;50.916;13.352;2023-06-14T03:29:40;10.60;;;9.60;;
19087;SDS011;9676;50.916;13.352;2023-06-14T03:32:30;11.27;;;10.27;;
19087;SDS011;9676;50.916;13.352;2023-06-14T03:35:21;10.67;;;9.77;;
19087;SDS011;9676;50.916;13.352;2023-06-14T03:38:11;10.50;;;9.60;;
19087;SDS011;9676;50.916;13.352;2023-06-14T03:41:02;10.70;;;9.70;;
19087;SDS011;9676;50.916;13.352;2023-06-14T03:43:52;10.63;;;9.73;;
19087;SDS011;9676;50.916;13.352;2023-06-14T03:46:42;10.80;;;9.80;;
19087;SDS011;9676;50.916;13.352;2023-06-14T03:49:32;10.77;;;9.77;;
19087;SDS011;9676;50.916;13.352;2023-06-14T03:52:22;10.80;;;9.90;;
19087;SDS011;9676;50.916;13.352;2023-06-14T03:55:12;10.63;;;9.63;;
19087;SDS011;9676;50.916;13.352;2023-06-14T03:58:08;11.03;;;10.03;;
19087;SDS011;9676;50.916;13.352;2023-06-14T04:00:58;10.63;;;9.67;;
19087;SDS011;9676;50.916;13.352;2023-06-14T04:03:50;10.30;;;9.47;;
19087;SDS011;9676;50.916;13.352;2023-06-14T04:06:40;10.80;;;9.80;;
19087;SDS011;9676;50.916;13.352;2023-06-14T04:09:31;11.13;;;10.10;;
19087;SDS011;9676;50.916;13.352;2023-06-14T04:12:20;10.43;;;9.53;;
19087;SDS011;9676;50.916;13.352;2023-06-14T04:15:11;10.80;;;9.80;;
19087;SDS011;9676;50.916;13.352;2023-06-14T04:18:11;11.20;;;10.20;;
19087;SDS011;9676;50.916;13.352;2023-06-14T04:21:00;10.97;;;10.00;;
19087;SDS011;9676;50.916;13.352;2023-06-14T04:23:50;10.30;;;9.40;;
19087;SDS011;9676;50.916;13.352;2023-06-14T04:26:43;10.30;;;9.40;;
19087;SDS011;9676;50.916;13.352;2023-06-14T04:29:37;10.20;;;9.30;;
19087;SDS011;9676;50.916;13.352;2023-06-14T04:32:32;10.20;;;9.30;;
19087;SDS011;9676;50.916;13.352;2023-06-14T04:35:28;10.53;;;9.57;;
19087;SDS011;9676;50.916;13.352;2023-06-14T04:38:19;10.07;;;9.20;;
19087;SDS011;9676;50.916;13.352;2023-06-14T04:41:13;10.73;;;9.83;;
19087;SDS011;9676;50.916;13.352;2023-06-14T04:44:03;16.93;;;9.77;;
19087;SDS011;9676;50.916;13.352;2023-06-14T04:46:59;10.47;;;9.50;;
19087;SDS011;9676;50.916;13.352;2023-06-14T04:49:50;10.43;;;9.53;;
19087;SDS011;9676;50.916;13.352;2023-06-14T04:52:41;10.57;;;9.57;;
19087;SDS011;9676;50.916;13.352;2023-06-14T04:55:31;10.50;;;9.50;;
19087;SDS011;9676;50.916;13.352;2023-06-14T04:58:22;10.67;;;9.67;;
19087;SDS011;9676;50.916;13.352;2023-06-14T05:01:11;10.63;;;9.63;;
19087;SDS011;9676;50.916;13.352;2023-06-14T05:04:01;10.97;;;9.97;;
19087;SDS011;9676;50.916;13.352;2023-06-14T05:06:53;11.10;;;10.00;;
19087;SDS011;9676;50.916;13.352;2023-06-14T05:09:42;10.87;;;9.77;;
19087;SDS011;9676;50.916;13.352;2023-06-14T05:12:33;10.60;;;9.50;;
19087;SDS011;9676;50.916;13.352;2023-06-14T05:15:24;10.27;;;9.27;;
19087;SDS011;9676;50.916;13.352;2023-06-14T05:18:14;10.40;;;9.30;;
19087;SDS011;9676;50.916;13.352;2023-06-14T05:21:03;10.47;;;9.47;;
19087;SDS011;9676;50.916;13.352;2023-06-14T05:23:57;10.10;;;9.10;;
19087;SDS011;9676;50.916;13.352;2023-06-14T05:26:47;9.90;;;9.00;;
19087;SDS011;9676;50.916;13.352;2023-06-14T05:29:36;9.90;;;9.00;;
19087;SDS011;9676;50.916;13.352;2023-06-14T05:32:25;10.07;;;9.07;;
19087;SDS011;9676;50.916;13.352;2023-06-14T05:35:15;10.33;;;9.23;;
19087;SDS011;9676;50.916;13.352;2023-06-14T05:38:05;10.40;;;9.40;;
19087;SDS011;9676;50.916;13.352;2023-06-14T05:40:56;10.10;;;9.20;;
19087;SDS011;9676;50.916;13.352;2023-06-14T05:43:46;10.13;;;9.23;;
19087;SDS011;9676;50.916;13.352;2023-06-14T05:46:36;10.47;;;9.47;;
19087;SDS011;9676;50.916;13.352;2023-06-14T05:49:27;10.50;;;9.53;;
19087;SDS011;9676;50.916;13.352;2023-06-14T05:52:16;11.10;;;10.00;;
19087;SDS011;9676;50.916;13.352;2023-06-14T05:55:07;10.80;;;9.70;;
19087;SDS011;9676;50.916;13.352;2023-06-14T05:58:02;10.73;;;9.73;;
19087;SDS011;9676;50.916;13.352;2023-06-14T06:00:51;10.37;;;9.37;;
19087;SDS011;9676;50.916;13.352;2023-06-14T06:03:41;10.10;;;9.20;;
19087;SDS011;9676;50.916;13.352;2023-06-14T06:06:33;12.00;;;10.70;;
19087;SDS011;9676;50.916;13.352;2023-06-14T06:09:23;11.10;;;10.00;;
19087;SDS011;9676;50.916;13.352;2023-06-14T06:12:12;10.60;;;9.50;;
19087;SDS011;9676;50.916;13.352;2023-06-14T06:15:03;10.47;;;9.53;;
19087;SDS011;9676;50.916;13.352;2023-06-14T06:17:55;10.20;;;9.20;;
19087;SDS011;9676;50.916;13.352;2023-06-14T06:20:44;10.07;;;9.07;;
19087;SDS011;9676;50.916;13.352;2023-06-14T06:23:34;9.87;;;8.97;;
19087;SDS011;9676;50.916;13.352;2023-06-14T06:26:24;9.90;;;8.93;;
19087;SDS011;9676;50.916;13.352;2023-06-14T06:29:14;10.20;;;8.87;;
19087;SDS011;9676;50.916;13.352;2023-06-14T06:32:05;9.83;;;8.93;;
19087;SDS011;9676;50.916;13.352;2023-06-14T06:34:55;10.50;;;9.20;;
19087;SDS011;9676;50.916;13.352;2023-06-14T06:37:47;10.23;;;9.23;;
19087;SDS011;9676;50.916;13.352;2023-06-14T06:40:36;10.57;;;9.57;;
19087;SDS011;9676;50.916;13.352;2023-06-14T06:43:25;9.87;;;8.97;;
19087;SDS011;9676;50.916;13.352;2023-06-14T06:46:17;9.50;;;8.70;;
19087;SDS011;9676;50.916;13.352;2023-06-14T06:49:08;9.63;;;8.73;;
19087;SDS011;9676;50.916;13.352;2023-06-14T06:52:00;10.03;;;9.07;;
19087;SDS011;9676;50.916;13.352;2023-06-14T06:54:50;9.77;;;8.87;;
19087;SDS011;9676;50.916;13.352;2023-06-14T06:57:42;9.63;;;8.77;;
19087;SDS011;9676;50.916;13.352;2023-06-14T07:00:31;9.67;;;8.80;;
19087;SDS011;9676;50.916;13.352;2023-06-14T07:03:21;9.40;;;8.60;;
19087;SDS011;9676;50.916;13.352;2023-06-14T07:06:12;9.17;;;8.40;;
19087;SDS011;9676;50.916;13.352;2023-06-14T07:09:01;10.10;;;8.93;;
19087;SDS011;9676;50.916;13.352;2023-06-14T07:11:52;9.87;;;8.97;;
19087;SDS011;9676;50.916;13.352;2023-06-14T07:14:42;10.03;;;8.63;;
19087;SDS011;9676;50.916;13.352;2023-06-14T07:17:31;9.50;;;8.60;;
19087;SDS011;9676;50.916;13.352;2023-06-14T07:20:21;9.20;;;8.40;;
19087;SDS011;9676;50.916;13.352;2023-06-14T07:23:13;9.67;;;8.70;;
19087;SDS011;9676;50.916;13.352;2023-06-14T07:26:02;9.60;;;8.80;;
19087;SDS011;9676;50.916;13.352;2023-06-14T07:28:52;10.00;;;9.00;;
19087;SDS011;9676;50.916;13.352;2023-06-14T07:31:41;10.20;;;9.20;;
19087;SDS011;9676;50.916;13.352;2023-06-14T07:34:31;9.80;;;8.90;;
19087;SDS011;9676;50.916;13.352;2023-06-14T07:37:20;9.50;;;8.70;;
19087;SDS011;9676;50.916;13.352;2023-06-14T07:40:12;9.27;;;8.47;;
19087;SDS011;9676;50.916;13.352;2023-06-14T07:43:02;9.75;;;8.75;;
19087;SDS011;9676;50.916;13.352;2023-06-14T07:45:51;9.40;;;8.47;;
19087;SDS011;9676;50.916;13.352;2023-06-14T07:48:54;9.17;;;8.40;;
19087;SDS011;9676;50.916;13.352;2023-06-14T07:51:43;9.93;;;8.30;;
19087;SDS011;9676;50.916;13.352;2023-06-14T07:54:34;9.13;;;8.33;;
19087;SDS011;9676;50.916;13.352;2023-06-14T07:57:25;9.50;;;8.70;;
19087;SDS011;9676;50.916;13.352;2023-06-14T08:00:14;9.00;;;8.20;;
19087;SDS011;9676;50.916;13.352;2023-06-14T08:03:05;9.23;;;8.43;;
19087;SDS011;9676;50.916;13.352;2023-06-14T08:05:55;9.32;;;8.52;;
19087;SDS011;9676;50.916;13.352;2023-06-14T08:08:44;9.40;;;8.60;;
19087;SDS011;9676;50.916;13.352;2023-06-14T08:11:34;9.40;;;8.60;;
19087;SDS011;9676;50.916;13.352;2023-06-14T08:14:25;12.80;;;8.60;;
19087;SDS011;9676;50.916;13.352;2023-06-14T08:17:16;9.17;;;8.37;;
19087;SDS011;9676;50.916;13.352;2023-06-14T08:20:06;9.50;;;8.60;;
19087;SDS011;9676;50.916;13.352;2023-06-14T08:22:58;8.97;;;8.17;;
19087;SDS011;9676;50.916;13.352;2023-06-14T08:25:47;9.03;;;8.30;;
19087;SDS011;9676;50.916;13.352;2023-06-14T08:28:36;9.15;;;8.35;;
19087;SDS011;9676;50.916;13.352;2023-06-14T08:31:27;9.30;;;8.50;;
19087;SDS011;9676;50.916;13.352;2023-06-14T08:34:19;11.70;;;8.60;;
19087;SDS011;9676;50.916;13.352;2023-06-14T08:37:11;12.63;;;8.70;;
19087;SDS011;9676;50.916;13.352;2023-06-14T08:40:02;9.30;;;8.50;;
19087;SDS011;9676;50.916;13.352;2023-06-14T08:42:54;9.32;;;8.52;;
19087;SDS011;9676;50.916;13.352;2023-06-14T08:45:46;9.65;;;8.75;;
19087;SDS011;9676;50.916;13.352;2023-06-14T08:48:42;9.25;;;8.55;;
19087;SDS011;9676;50.916;13.352;2023-06-14T08:51:31;10.00;;;9.00;;
19087;SDS011;9676;50.916;13.352;2023-06-14T08:54:25;9.07;;;8.35;;
19087;SDS011;9676;50.916;13.352;2023-06-14T08:57:17;9.07;;;8.35;;
19087;SDS011;9676;50.916;13.352;2023-06-14T09:00:08;9.43;;;8.63;;
19087;SDS011;9676;50.916;13.352;2023-06-14T09:03:00;9.60;;;8.70;;
19087;SDS011;9676;50.916;13.352;2023-06-14T09:05:52;9.35;;;8.48;;
19087;SDS011;9676;50.916;13.352;2023-06-14T09:08:42;9.30;;;8.50;;
19087;SDS011;9676;50.916;13.352;2023-06-14T09:11:32;9.27;;;8.48;;
19087;SDS011;9676;50.916;13.352;2023-06-14T09:14:23;11.32;;;8.90;;
19087;SDS011;9676;50.916;13.352;2023-06-14T09:17:13;9.65;;;8.85;;
19087;SDS011;9676;50.916;13.352;2023-06-14T09:20:05;9.75;;;8.85;;
19087;SDS011;9676;50.916;13.352;2023-06-14T09:23:00;9.23;;;8.43;;
19087;SDS011;9676;50.916;13.352;2023-06-14T09:25:53;9.48;;;8.68;;
19087;SDS011;9676;50.916;13.352;2023-06-14T09:28:43;10.02;;;9.13;;
19087;SDS011;9676;50.916;13.352;2023-06-14T09:31:34;9.77;;;8.90;;
19087;SDS011;9676;50.916;13.352;2023-06-14T09:34:24;10.40;;;9.30;;
19087;SDS011;9676;50.916;13.352;2023-06-14T09:37:17;9.60;;;8.80;;
19087;SDS011;9676;50.916;13.352;2023-06-14T09:40:21;9.93;;;8.93;;
19087;SDS011;9676;50.916;13.352;2023-06-14T09:43:11;9.55;;;8.75;;
19087;SDS011;9676;50.916;13.352;2023-06-14T09:46:01;9.38;;;8.57;;
19087;SDS011;9676;50.916;13.352;2023-06-14T09:48:51;9.57;;;8.67;;
19087;SDS011;9676;50.916;13.352;2023-06-14T09:51:42;9.43;;;8.60;;
19087;SDS011;9676;50.916;13.352;2023-06-14T09:54:32;9.07;;;8.27;;
19087;SDS011;9676;50.916;13.352;2023-06-14T09:57:31;8.80;;;8.10;;
19087;SDS011;9676;50.916;13.352;2023-06-14T10:00:23;9.20;;;8.50;;
19087;SDS011;9676;50.916;13.352;2023-06-14T10:03:16;9.20;;;8.40;;
19087;SDS011;9676;50.916;13.352;2023-06-14T10:06:11;8.75;;;8.05;;
19087;SDS011;9676;50.916;13.352;2023-06-14T10:09:02;8.90;;;8.20;;
19087;SDS011;9676;50.916;13.352;2023-06-14T10:11:54;8.70;;;8.00;;
19087;SDS011;9676;50.916;13.352;2023-06-14T10:14:45;9.05;;;8.35;;
19087;SDS011;9676;50.916;13.352;2023-06-14T10:17:40;8.88;;;8.18;;
19087;SDS011;9676;50.916;13.352;2023-06-14T10:20:37;8.90;;;8.20;;
19087;SDS011;9676;50.916;13.352;2023-06-14T10:23:35;9.48;;;8.20;;
19087;SDS011;9676;50.916;13.352;2023-06-14T10:26:31;9.05;;;8.25;;
19087;SDS011;9676;50.916;13.352;2023-06-14T10:29:21;8.90;;;8.20;;
19087;SDS011;9676;50.916;13.352;2023-06-14T10:32:11;9.35;;;8.32;;
19087;SDS011;9676;50.916;13.352;2023-06-14T10:35:01;8.95;;;8.23;;
19087;SDS011;9676;50.916;13.352;2023-06-14T10:37:54;9.50;;;8.60;;
19087;SDS011;9676;50.916;13.352;2023-06-14T10:40:44;9.50;;;8.50;;
19087;SDS011;9676;50.916;13.352;2023-06-14T10:43:42;9.20;;;8.40;;
19087;SDS011;9676;50.916;13.352;2023-06-14T10:46:32;9.00;;;8.30;;
19087;SDS011;9676;50.916;13.352;2023-06-14T10:49:36;9.57;;;8.73;;
19087;SDS011;9676;50.916;13.352;2023-06-14T10:52:32;9.00;;;8.20;;
19087;SDS011;9676;50.916;13.352;2023-06-14T10:55:23;9.15;;;8.40;;
19087;SDS011;9676;50.916;13.352;2023-06-14T10:58:13;9.10;;;8.30;;
19087;SDS011;9676;50.916;13.352;2023-06-14T11:01:03;9.70;;;8.75;;
19087;SDS011;9676;50.916;13.352;2023-06-14T11:03:52;9.65;;;8.75;;
19087;SDS011;9676;50.916;13.352;2023-06-14T11:06:47;9.33;;;8.43;;
19087;SDS011;9676;50.916;13.352;2023-06-14T11:09:50;9.60;;;8.77;;
19087;SDS011;9676;50.916;13.352;2023-06-14T11:12:54;10.00;;;9.00;;
19087;SDS011;9676;50.916;13.352;2023-06-14T11:15:44;10.90;;;9.80;;
19087;SDS011;9676;50.916;13.352;2023-06-14T11:18:36;10.60;;;9.50;;
19087;SDS011;9676;50.916;13.352;2023-06-14T11:21:26;9.90;;;8.97;;
19087;SDS011;9676;50.916;13.352;2023-06-14T11:24:20;10.50;;;9.50;;
19087;SDS011;9676;50.916;13.352;2023-06-14T11:27:09;10.20;;;9.30;;
19087;SDS011;9676;50.916;13.352;2023-06-14T11:30:00;10.70;;;9.70;;
19087;SDS011;9676;50.916;13.352;2023-06-14T11:32:50;10.60;;;9.60;;
19087;SDS011;9676;50.916;13.352;2023-06-14T11:35:45;10.50;;;9.50;;
19087;SDS011;9676;50.916;13.352;2023-06-14T11:38:35;10.40;;;9.40;;
19087;SDS011;9676;50.916;13.352;2023-06-14T11:41:31;10.63;;;9.63;;
19087;SDS011;9676;50.916;13.352;2023-06-14T11:44:22;10.77;;;9.63;;
19087;SDS011;9676;50.916;13.352;2023-06-14T11:47:13;10.57;;;9.57;;
19087;SDS011;9676;50.916;13.352;2023-06-14T11:50:02;11.70;;;9.53;;
19087;SDS011;9676;50.916;13.352;2023-06-14T11:52:56;10.80;;;9.40;;
19087;SDS011;9676;50.916;13.352;2023-06-14T11:55:54;10.33;;;9.30;;
19087;SDS011;9676;50.916;13.352;2023-06-14T11:58:45;10.03;;;9.13;;
19087;SDS011;9676;50.916;13.352;2023-06-14T12:01:38;10.50;;;9.50;;
19087;SDS011;9676;50.916;13.352;2023-06-14T12:04:27;10.73;;;9.73;;
19087;SDS011;9676;50.916;13.352;2023-06-14T12:07:18;13.23;;;9.80;;
19087;SDS011;9676;50.916;13.352;2023-06-14T12:10:10;10.90;;;9.90;;
19087;SDS011;9676;50.916;13.352;2023-06-14T12:13:00;10.63;;;9.63;;
19087;SDS011;9676;50.916;13.352;2023-06-14T12:15:55;10.50;;;9.43;;
19087;SDS011;9676;50.916;13.352;2023-06-14T12:18:45;10.17;;;9.27;;
19087;SDS011;9676;50.916;13.352;2023-06-14T12:21:35;10.40;;;9.40;;
19087;SDS011;9676;50.916;13.352;2023-06-14T12:24:28;10.40;;;9.40;;
19087;SDS011;9676;50.916;13.352;2023-06-14T12:27:17;10.60;;;9.60;;
19087;SDS011;9676;50.916;13.352;2023-06-14T12:30:11;10.47;;;9.47;;
19087;SDS011;9676;50.916;13.352;2023-06-14T12:33:02;10.67;;;9.67;;
19087;SDS011;9676;50.916;13.352;2023-06-14T12:35:54;12.43;;;10.70;;
19087;SDS011;9676;50.916;13.352;2023-06-14T12:38:45;11.37;;;10.17;;
19087;SDS011;9676;50.916;13.352;2023-06-14T12:41:38;11.73;;;10.60;;
19087;SDS011;9676;50.916;13.352;2023-06-14T12:44:29;11.97;;;10.83;;
19087;SDS011;9676;50.916;13.352;2023-06-14T12:47:21;11.27;;;10.27;;
19087;SDS011;9676;50.916;13.352;2023-06-14T12:50:11;11.73;;;10.63;;
19087;SDS011;9676;50.916;13.352;2023-06-14T12:53:01;10.93;;;9.90;;
19087;SDS011;9676;50.916;13.352;2023-06-14T12:55:51;10.93;;;9.83;;
19087;SDS011;9676;50.916;13.352;2023-06-14T12:58:40;11.73;;;10.53;;
19087;SDS011;9676;50.916;13.352;2023-06-14T13:01:30;14.33;;;10.00;;
19087;SDS011;9676;50.916;13.352;2023-06-14T13:04:19;10.83;;;9.77;;
19087;SDS011;9676;50.916;13.352;2023-06-14T13:07:10;10.50;;;9.50;;
19087;SDS011;9676;50.916;13.352;2023-06-14T13:10:00;10.93;;;9.80;;
19087;SDS011;9676;50.916;13.352;2023-06-14T13:12:49;10.47;;;9.47;;
19087;SDS011;9676;50.916;13.352;2023-06-14T13:15:38;10.70;;;9.70;;
19087;SDS011;9676;50.916;13.352;2023-06-14T13:18:28;11.20;;;9.87;;
19087;SDS011;9676;50.916;13.352;2023-06-14T13:21:17;10.97;;;9.87;;
19087;SDS011;9676;50.916;13.352;2023-06-14T13:24:08;10.37;;;9.47;;
19087;SDS011;9676;50.916;13.352;2023-06-14T13:26:58;11.03;;;10.03;;
19087;SDS011;9676;50.916;13.352;2023-06-14T13:29:47;10.70;;;9.70;;
19087;SDS011;9676;50.916;13.352;2023-06-14T13:32:36;10.50;;;9.50;;
19087;SDS011;9676;50.916;13.352;2023-06-14T13:35:26;12.20;;;9.50;;
19087;SDS011;9676;50.916;13.352;2023-06-14T13:38:16;13.27;;;9.93;;
19087;SDS011;9676;50.916;13.352;2023-06-14T13:41:07;10.20;;;9.30;;
19087;SDS011;9676;50.916;13.352;2023-06-14T13:43:56;10.30;;;9.30;;
19087;SDS011;9676;50.916;13.352;2023-06-14T13:46:52;11.13;;;9.33;;
19087;SDS011;9676;50.916;13.352;2023-06-14T13:49:42;10.37;;;9.40;;
19087;SDS011;9676;50.916;13.352;2023-06-14T13:52:31;9.90;;;9.00;;
19087;SDS011;9676;50.916;13.352;2023-06-14T13:55:22;10.87;;;9.87;;
19087;SDS011;9676;50.916;13.352;2023-06-14T13:58:12;11.10;;;10.10;;
19087;SDS011;9676;50.916;13.352;2023-06-14T14:01:02;11.10;;;10.00;;
19087;SDS011;9676;50.916;13.352;2023-06-14T14:03:52;11.00;;;10.00;;
19087;SDS011;9676;50.916;13.352;2023-06-14T14:06:41;11.00;;;10.00;;
19087;SDS011;9676;50.916;13.352;2023-06-14T14:09:34;10.83;;;9.83;;
19087;SDS011;9676;50.916;13.352;2023-06-14T14:12:24;10.53;;;9.53;;
19087;SDS011;9676;50.916;13.352;2023-06-14T14:15:17;11.20;;;10.13;;
19087;SDS011;9676;50.916;13.352;2023-06-14T14:18:06;11.03;;;9.93;;
19087;SDS011;9676;50.916;13.352;2023-06-14T14:20:56;11.30;;;10.10;;
19087;SDS011;9676;50.916;13.352;2023-06-14T14:23:45;11.17;;;10.10;;
19087;SDS011;9676;50.916;13.352;2023-06-14T14:26:37;11.50;;;10.40;;
19087;SDS011;9676;50.916;13.352;2023-06-14T14:29:26;11.47;;;10.10;;
19087;SDS011;9676;50.916;13.352;2023-06-14T14:32:21;11.33;;;10.23;;
19087;SDS011;9676;50.916;13.352;2023-06-14T14:35:10;11.13;;;10.10;;
19087;SDS011;9676;50.916;13.352;2023-06-14T14:37:59;10.70;;;9.70;;
19087;SDS011;9676;50.916;13.352;2023-06-14T14:40:50;11.83;;;9.93;;
19087;SDS011;9676;50.916;13.352;2023-06-14T14:43:40;10.50;;;9.53;;
19087;SDS011;9676;50.916;13.352;2023-06-14T14:46:29;11.23;;;10.03;;
19087;SDS011;9676;50.916;13.352;2023-06-14T14:49:20;11.20;;;10.00;;
19087;SDS011;9676;50.916;13.352;2023-06-14T14:52:10;13.80;;;10.50;;
19087;SDS011;9676;50.916;13.352;2023-06-14T14:55:10;11.53;;;10.33;;
19087;SDS011;9676;50.916;13.352;2023-06-14T14:58:00;11.37;;;10.27;;
19087;SDS011;9676;50.916;13.352;2023-06-14T15:00:49;11.30;;;10.10;;
19087;SDS011;9676;50.916;13.352;2023-06-14T15:03:39;10.93;;;9.90;;
19087;SDS011;9676;50.916;13.352;2023-06-14T15:06:46;11.00;;;9.90;;
19087;SDS011;9676;50.916;13.352;2023-06-14T15:09:35;10.20;;;9.30;;
19087;SDS011;9676;50.916;13.352;2023-06-14T15:12:25;11.70;;;10.07;;
19087;SDS011;9676;50.916;13.352;2023-06-14T15:15:17;10.67;;;9.67;;
19087;SDS011;9676;50.916;13.352;2023-06-14T15:18:06;10.77;;;9.77;;
19087;SDS011;9676;50.916;13.352;2023-06-14T15:20:57;11.33;;;9.77;;
19087;SDS011;9676;50.916;13.352;2023-06-14T15:23:47;10.77;;;9.73;;
19087;SDS011;9676;50.916;13.352;2023-06-14T15:26:37;10.60;;;9.60;;
19087;SDS011;9676;50.916;13.352;2023-06-14T15:29:26;10.93;;;9.93;;
19087;SDS011;9676;50.916;13.352;2023-06-14T15:32:16;10.40;;;9.40;;
19087;SDS011;9676;50.916;13.352;2023-06-14T15:35:05;10.77;;;9.77;;
19087;SDS011;9676;50.916;13.352;2023-06-14T15:37:55;10.67;;;9.67;;
19087;SDS011;9676;50.916;13.352;2023-06-14T15:40:46;10.67;;;9.67;;
19087;SDS011;9676;50.916;13.352;2023-06-14T15:43:38;10.43;;;9.53;;
19087;SDS011;9676;50.916;13.352;2023-06-14T15:46:28;13.80;;;9.80;;
19087;SDS011;9676;50.916;13.352;2023-06-14T15:49:17;10.77;;;9.67;;
19087;SDS011;9676;50.916;13.352;2023-06-14T15:52:07;10.40;;;9.40;;
19087;SDS011;9676;50.916;13.352;2023-06-14T15:54:56;10.10;;;9.20;;
19087;SDS011;9676;50.916;13.352;2023-06-14T15:57:47;10.57;;;9.57;;
19087;SDS011;9676;50.916;13.352;2023-06-14T16:00:36;10.43;;;9.43;;
19087;SDS011;9676;50.916;13.352;2023-06-14T16:03:26;10.00;;;9.10;;
19087;SDS011;9676;50.916;13.352;2023-06-14T16:06:16;10.57;;;9.47;;
19087;SDS011;9676;50.916;13.352;2023-06-14T16:09:05;10.70;;;9.60;;
19087;SDS011;9676;50.916;13.352;2023-06-14T16:11:55;10.63;;;9.33;;
19087;SDS011;9676;50.916;13.352;2023-06-14T16:14:46;10.33;;;9.33;;
19087;SDS011;9676;50.916;13.352;2023-06-14T16:17:36;10.40;;;9.40;;
19087;SDS011;9676;50.916;13.352;2023-06-14T16:20:25;10.80;;;9.80;;
19087;SDS011;9676;50.916;13.352;2023-06-14T16:23:15;10.47;;;9.57;;
19087;SDS011;9676;50.916;13.352;2023-06-14T16:26:09;10.83;;;9.83;;
19087;SDS011;9676;50.916;13.352;2023-06-14T16:29:00;10.47;;;9.47;;
19087;SDS011;9676;50.916;13.352;2023-06-14T16:31:50;10.23;;;9.23;;
19087;SDS011;9676;50.916;13.352;2023-06-14T16:34:40;10.63;;;9.70;;
19087;SDS011;9676;50.916;13.352;2023-06-14T16:37:29;10.80;;;9.80;;
19087;SDS011;9676;50.916;13.352;2023-06-14T16:40:19;10.70;;;9.70;;
19087;SDS011;9676;50.916;13.352;2023-06-14T16:43:08;10.57;;;9.57;;
19087;SDS011;9676;50.916;13.352;2023-06-14T16:45:58;10.70;;;9.60;;
19087;SDS011;9676;50.916;13.352;2023-06-14T16:48:49;10.50;;;9.50;;
19087;SDS011;9676;50.916;13.352;2023-06-14T16:51:38;11.57;;;9.80;;
19087;SDS011;9676;50.916;13.352;2023-06-14T16:54:27;11.00;;;10.00;;
19087;SDS011;9676;50.916;13.352;2023-06-14T16:57:17;10.50;;;9.40;;